sensor_id;sensor_type;location;lat;lon;timestamp;pressure;altitude;pressure_sealevel;temperature;humidity
31062;BME280;17724;53.546;9.974;2023-02-19T00:01:46;101502.66;;;6.46;100.00
31062;BME280;17724;53.546;9.974;2023-02-19T00:05:46;101495.28;;;6.53;100.00
31062;BME280;17724;53.546;9.974;2023-02-19T00:09:47;101498.06;;;6.39;100.00
31062;BME280;17724;53.546;9.974;2023-02-19T00:13:50;101499.91;;;6.52;100.00
31062;BME280;17724;53.546;9.974;2023-02-19T00:17:50;101503.66;;;6.58;100.00
31062;BME280;17724;53.546;9.974;2023-02-19T00:21:52;101502.66;;;6.52;100.00
31062;BME280;17724;53.546;9.974;2023-02-19T00:25:53;101503.50;;;6.46;100.00
31062;BME280;17724;53.546;9.974;2023-02-19T00:29:54;101496.19;;;6.27;100.00
31062;BME280;17724;53.546;9.974;2023-02-19T00:33:56;101492.38;;;6.48;100.00
31062;BME280;17724;53.546;9.974;2023-02-19T00:37:57;101490.94;;;6.32;100.00
31062;BME280;17724;53.546;9.974;2023-02-19T00:41:57;101494.25;;;6.40;100.00
31062;BME280;17724;53.546;9.974;2023-02-19T00:46:00;101501.84;;;6.32;100.00
31062;BME280;17724;53.546;9.974;2023-02-19T00:50:00;101503.50;;;6.46;100.00
31062;BME280;17724;53.546;9.974;2023-02-19T00:54:01;101506.03;;;6.41;100.00
31062;BME280;17724;53.546;9.974;2023-02-19T00:58:02;101503.94;;;6.43;100.00
31062;BME280;17724;53.546;9.974;2023-02-19T01:02:02;101516.53;;;6.37;100.00
31062;BME280;17724;53.546;9.974;2023-02-19T01:06:04;101515.09;;;6.22;100.00
31062;BME280;17724;53.546;9.974;2023-02-19T01:10:05;101519.94;;;6.13;100.00
31062;BME280;17724;53.546;9.974;2023-02-19T01:14:07;101511.75;;;6.06;100.00
31062;BME280;17724;53.546;9.974;2023-02-19T01:18:09;101510.28;;;6.04;100.00
31062;BME280;17724;53.546;9.974;2023-02-19T01:22:09;101516.59;;;6.04;100.00
31062;BME280;17724;53.546;9.974;2023-02-19T01:26:13;101517.44;;;6.05;100.00
31062;BME280;17724;53.546;9.974;2023-02-19T01:30:14;101503.13;;;6.09;100.00
31062;BME280;17724;53.546;9.974;2023-02-19T01:34:14;101514.91;;;5.97;100.00
31062;BME280;17724;53.546;9.974;2023-02-19T01:38:15;101502.28;;;5.69;100.00
31062;BME280;17724;53.546;9.974;2023-02-19T01:42:16;101511.91;;;5.45;100.00
31062;BME280;17724;53.546;9.974;2023-02-19T01:46:16;101508.56;;;5.56;100.00
31062;BME280;17724;53.546;9.974;2023-02-19T01:50:17;101500.19;;;5.64;100.00
31062;BME280;17724;53.546;9.974;2023-02-19T01:54:19;101507.31;;;5.72;100.00
31062;BME280;17724;53.546;9.974;2023-02-19T01:58:23;101502.47;;;5.54;100.00
31062;BME280;17724;53.546;9.974;2023-02-19T02:02:25;101507.09;;;5.60;100.00
31062;BME280;17724;53.546;9.974;2023-02-19T02:06:34;101509.56;;;5.42;100.00
31062;BME280;17724;53.546;9.974;2023-02-19T02:10:37;101510.41;;;5.42;100.00
31062;BME280;17724;53.546;9.974;2023-02-19T02:14:40;101500.34;;;5.36;100.00
31062;BME280;17724;53.546;9.974;2023-02-19T02:18:58;101506.38;;;5.18;100.00
31062;BME280;17724;53.546;9.974;2023-02-19T02:28:00;101503.19;;;5.02;100.00
31062;BME280;17724;53.546;9.974;2023-02-19T02:32:19;101500.28;;;5.03;100.00
31062;BME280;17724;53.546;9.974;2023-02-19T02:36:23;101507.13;;;4.92;100.00
31062;BME280;17724;53.546;9.974;2023-02-19T02:40:26;101515.28;;;4.86;100.00
31062;BME280;17724;53.546;9.974;2023-02-19T02:44:33;101516.72;;;4.82;100.00
31062;BME280;17724;53.546;9.974;2023-02-19T02:48:54;101514.16;;;4.67;100.00
31062;BME280;17724;53.546;9.974;2023-02-19T02:53:02;101511.06;;;4.42;100.00
31062;BME280;17724;53.546;9.974;2023-02-19T02:57:23;101509.00;;;4.44;100.00
31062;BME280;17724;53.546;9.974;2023-02-19T03:01:48;101507.22;;;4.64;100.00
31062;BME280;17724;53.546;9.974;2023-02-19T03:06:11;101511.41;;;4.60;100.00
31062;BME280;17724;53.546;9.974;2023-02-19T03:10:18;101508.72;;;4.74;100.00
31062;BME280;17724;53.546;9.974;2023-02-19T03:14:22;101530.09;;;4.70;100.00
31062;BME280;17724;53.546;9.974;2023-02-19T03:18:45;101507.19;;;4.58;100.00
31062;BME280;17724;53.546;9.974;2023-02-19T03:23:08;101519.63;;;4.74;100.00
31062;BME280;17724;53.546;9.974;2023-02-19T03:27:09;101530.25;;;4.62;100.00
31062;BME280;17724;53.546;9.974;2023-02-19T03:31:18;101529.41;;;4.61;100.00
31062;BME280;17724;53.546;9.974;2023-02-19T03:35:26;101545.31;;;4.51;100.00
31062;BME280;17724;53.546;9.974;2023-02-19T03:39:29;101534.69;;;4.63;100.00
31062;BME280;17724;53.546;9.974;2023-02-19T03:43:51;101547.72;;;4.74;100.00
31062;BME280;17724;53.546;9.974;2023-02-19T03:48:06;101554.22;;;4.73;100.00
31062;BME280;17724;53.546;9.974;2023-02-19T03:56:48;101545.59;;;4.63;100.00
31062;BME280;17724;53.546;9.974;2023-02-19T04:00:56;101550.88;;;4.71;100.00
31062;BME280;17724;53.546;9.974;2023-02-19T04:05:15;101559.22;;;4.69;100.00
31062;BME280;17724;53.546;9.974;2023-02-19T04:09:19;101567.88;;;4.80;100.00
31062;BME280;17724;53.546;9.974;2023-02-19T04:13:31;101565.22;;;4.93;100.00
31062;BME280;17724;53.546;9.974;2023-02-19T04:17:57;101569.22;;;4.97;100.00
31062;BME280;17724;53.546;9.974;2023-02-19T04:21:57;101560.72;;;4.79;100.00
31062;BME280;17724;53.546;9.974;2023-02-19T04:25:59;101587.19;;;4.85;100.00
31062;BME280;17724;53.546;9.974;2023-02-19T04:30:00;101596.19;;;4.85;100.00
31062;BME280;17724;53.546;9.974;2023-02-19T04:34:02;101597.66;;;4.81;100.00
31062;BME280;17724;53.546;9.974;2023-02-19T04:38:03;101617.44;;;4.97;100.00
31062;BME280;17724;53.546;9.974;2023-02-19T04:42:03;101630.06;;;5.04;100.00
31062;BME280;17724;53.546;9.974;2023-02-19T04:46:04;101620.22;;;5.03;100.00
31062;BME280;17724;53.546;9.974;2023-02-19T04:50:05;101631.91;;;4.97;100.00
31062;BME280;17724;53.546;9.974;2023-02-19T04:54:05;101621.63;;;4.92;100.00
31062;BME280;17724;53.546;9.974;2023-02-19T04:58:06;101637.38;;;4.97;100.00
31062;BME280;17724;53.546;9.974;2023-02-19T05:02:06;101644.53;;;5.05;100.00
31062;BME280;17724;53.546;9.974;2023-02-19T05:06:09;101648.16;;;5.12;100.00
31062;BME280;17724;53.546;9.974;2023-02-19T05:10:10;101646.53;;;4.89;100.00
31062;BME280;17724;53.546;9.974;2023-02-19T05:14:11;101641.41;;;5.08;100.00
31062;BME280;17724;53.546;9.974;2023-02-19T05:18:11;101635.56;;;5.11;100.00
31062;BME280;17724;53.546;9.974;2023-02-19T05:22:12;101631.47;;;4.93;100.00
31062;BME280;17724;53.546;9.974;2023-02-19T05:26:16;101652.22;;;4.94;100.00
31062;BME280;17724;53.546;9.974;2023-02-19T05:30:17;101652.09;;;5.03;100.00
31062;BME280;17724;53.546;9.974;2023-02-19T05:34:17;101663.34;;;4.93;100.00
31062;BME280;17724;53.546;9.974;2023-02-19T05:38:18;101670.44;;;4.87;100.00
31062;BME280;17724;53.546;9.974;2023-02-19T05:42:19;101687.19;;;4.84;100.00
31062;BME280;17724;53.546;9.974;2023-02-19T05:46:22;101678.25;;;4.97;100.00
31062;BME280;17724;53.546;9.974;2023-02-19T05:50:23;101684.31;;;4.92;100.00
31062;BME280;17724;53.546;9.974;2023-02-19T05:54:23;101692.25;;;4.87;100.00
31062;BME280;17724;53.546;9.974;2023-02-19T05:58:24;101697.09;;;4.92;100.00
31062;BME280;17724;53.546;9.974;2023-02-19T06:02:25;101697.84;;;4.79;100.00
31062;BME280;17724;53.546;9.974;2023-02-19T06:06:26;101709.00;;;4.84;100.00
31062;BME280;17724;53.546;9.974;2023-02-19T06:10:26;101720.19;;;4.68;100.00
31062;BME280;17724;53.546;9.974;2023-02-19T06:14:27;101731.72;;;4.98;100.00
31062;BME280;17724;53.546;9.974;2023-02-19T06:18:27;101742.00;;;4.96;100.00
31062;BME280;17724;53.546;9.974;2023-02-19T06:22:28;101745.94;;;4.87;100.00
31062;BME280;17724;53.546;9.974;2023-02-19T06:26:28;101762.84;;;5.04;100.00
31062;BME280;17724;53.546;9.974;2023-02-19T06:30:29;101770.19;;;4.82;100.00
31062;BME280;17724;53.546;9.974;2023-02-19T06:34:31;101774.41;;;4.84;100.00
31062;BME280;17724;53.546;9.974;2023-02-19T06:38:31;101779.16;;;4.76;100.00
31062;BME280;17724;53.546;9.974;2023-02-19T06:42:32;101800.84;;;4.84;100.00
31062;BME280;17724;53.546;9.974;2023-02-19T06:46:32;101803.06;;;5.02;100.00
31062;BME280;17724;53.546;9.974;2023-02-19T06:50:33;101818.53;;;4.94;100.00
31062;BME280;17724;53.546;9.974;2023-02-19T06:54:34;101825.53;;;5.04;100.00
31062;BME280;17724;53.546;9.974;2023-02-19T06:58:34;101827.75;;;4.93;100.00
31062;BME280;17724;53.546;9.974;2023-02-19T07:02:34;101831.31;;;4.94;100.00
31062;BME280;17724;53.546;9.974;2023-02-19T07:06:35;101831.00;;;5.04;100.00
31062;BME280;17724;53.546;9.974;2023-02-19T07:10:36;101843.56;;;5.05;100.00
31062;BME280;17724;53.546;9.974;2023-02-19T07:14:37;101836.13;;;4.92;100.00
31062;BME280;17724;53.546;9.974;2023-02-19T07:18:39;101863.53;;;4.84;100.00
31062;BME280;17724;53.546;9.974;2023-02-19T07:22:39;101865.78;;;4.80;100.00
31062;BME280;17724;53.546;9.974;2023-02-19T07:26:40;101873.03;;;4.94;100.00
31062;BME280;17724;53.546;9.974;2023-02-19T07:30:40;101885.25;;;4.99;100.00
31062;BME280;17724;53.546;9.974;2023-02-19T07:34:40;101894.75;;;5.03;100.00
31062;BME280;17724;53.546;9.974;2023-02-19T07:38:41;101898.06;;;5.19;100.00
31062;BME280;17724;53.546;9.974;2023-02-19T07:42:42;101908.75;;;5.21;100.00
31062;BME280;17724;53.546;9.974;2023-02-19T07:46:43;101914.28;;;5.28;100.00
31062;BME280;17724;53.546;9.974;2023-02-19T07:50:54;101907.44;;;5.17;100.00
31062;BME280;17724;53.546;9.974;2023-02-19T07:54:55;101933.13;;;5.23;100.00
31062;BME280;17724;53.546;9.974;2023-02-19T07:58:55;101943.63;;;5.26;100.00
31062;BME280;17724;53.546;9.974;2023-02-19T08:02:56;101927.66;;;5.23;100.00
31062;BME280;17724;53.546;9.974;2023-02-19T08:07:00;101944.97;;;5.36;100.00
31062;BME280;17724;53.546;9.974;2023-02-19T08:11:02;101960.25;;;5.09;100.00
31062;BME280;17724;53.546;9.974;2023-02-19T08:15:21;101962.53;;;5.27;100.00
31062;BME280;17724;53.546;9.974;2023-02-19T08:19:22;101957.91;;;5.28;100.00
31062;BME280;17724;53.546;9.974;2023-02-19T08:23:23;101950.31;;;5.44;100.00
31062;BME280;17724;53.546;9.974;2023-02-19T08:27:24;101944.75;;;5.31;100.00
31062;BME280;17724;53.546;9.974;2023-02-19T08:31:24;101954.00;;;5.37;100.00
31062;BME280;17724;53.546;9.974;2023-02-19T08:35:25;101961.59;;;5.41;100.00
31062;BME280;17724;53.546;9.974;2023-02-19T08:39:26;101975.53;;;5.47;100.00
31062;BME280;17724;53.546;9.974;2023-02-19T08:43:26;101976.81;;;5.51;100.00
31062;BME280;17724;53.546;9.974;2023-02-19T08:47:27;101991.47;;;5.71;100.00
31062;BME280;17724;53.546;9.974;2023-02-19T08:51:27;101979.25;;;5.67;100.00
31062;BME280;17724;53.546;9.974;2023-02-19T08:55:28;101995.16;;;5.85;100.00
31062;BME280;17724;53.546;9.974;2023-02-19T08:59:31;102012.91;;;5.74;100.00
31062;BME280;17724;53.546;9.974;2023-02-19T09:03:32;102018.00;;;5.99;100.00
31062;BME280;17724;53.546;9.974;2023-02-19T09:07:33;102031.13;;;6.16;100.00
31062;BME280;17724;53.546;9.974;2023-02-19T09:11:33;102046.97;;;6.28;100.00
31062;BME280;17724;53.546;9.974;2023-02-19T09:15:34;102043.56;;;6.19;100.00
31062;BME280;17724;53.546;9.974;2023-02-19T09:19:36;102063.59;;;6.33;100.00
31062;BME280;17724;53.546;9.974;2023-02-19T09:23:37;102049.88;;;6.26;100.00
31062;BME280;17724;53.546;9.974;2023-02-19T09:27:38;102048.78;;;6.49;100.00
31062;BME280;17724;53.546;9.974;2023-02-19T09:31:38;102061.91;;;6.60;100.00
31062;BME280;17724;53.546;9.974;2023-02-19T09:35:39;102067.84;;;6.35;100.00
31062;BME280;17724;53.546;9.974;2023-02-19T09:39:39;102073.06;;;6.58;100.00
31062;BME280;17724;53.546;9.974;2023-02-19T09:43:41;102084.63;;;6.32;100.00
31062;BME280;17724;53.546;9.974;2023-02-19T09:47:42;102077.31;;;6.68;100.00
31062;BME280;17724;53.546;9.974;2023-02-19T09:52:11;102084.09;;;6.50;100.00
31062;BME280;17724;53.546;9.974;2023-02-19T09:56:09;102088.34;;;6.53;100.00
31062;BME280;17724;53.546;9.974;2023-02-19T10:04:10;102132.47;;;6.50;100.00
31062;BME280;17724;53.546;9.974;2023-02-19T10:08:15;102133.22;;;6.65;100.00
31062;BME280;17724;53.546;9.974;2023-02-19T10:12:24;102143.09;;;6.66;100.00
31062;BME280;17724;53.546;9.974;2023-02-19T10:16:26;102152.59;;;6.70;100.00
31062;BME280;17724;53.546;9.974;2023-02-19T10:20:27;102155.13;;;6.72;98.16
31062;BME280;17724;53.546;9.974;2023-02-19T10:24:28;102157.50;;;6.81;97.34
31062;BME280;17724;53.546;9.974;2023-02-19T10:28:33;102177.69;;;6.80;95.70
31062;BME280;17724;53.546;9.974;2023-02-19T10:32:34;102169.28;;;6.82;92.30
31062;BME280;17724;53.546;9.974;2023-02-19T10:36:37;102176.56;;;6.68;89.37
31062;BME280;17724;53.546;9.974;2023-02-19T10:40:43;102168.94;;;6.91;91.34
31062;BME280;17724;53.546;9.974;2023-02-19T10:44:47;102176.00;;;7.07;90.58
31062;BME280;17724;53.546;9.974;2023-02-19T10:48:52;102192.97;;;6.96;86.52
31062;BME280;17724;53.546;9.974;2023-02-19T10:52:56;102186.66;;;6.96;81.96
31062;BME280;17724;53.546;9.974;2023-02-19T10:57:23;102202.25;;;7.02;82.41
31062;BME280;17724;53.546;9.974;2023-02-19T11:01:32;102206.53;;;7.11;81.49
31062;BME280;17724;53.546;9.974;2023-02-19T11:05:32;102202.72;;;7.53;84.80
31062;BME280;17724;53.546;9.974;2023-02-19T11:09:38;102208.81;;;7.49;80.66
31062;BME280;17724;53.546;9.974;2023-02-19T11:13:41;102224.22;;;7.56;81.81
31062;BME280;17724;53.546;9.974;2023-02-19T11:17:41;102214.56;;;7.60;81.34
31062;BME280;17724;53.546;9.974;2023-02-19T11:21:42;102219.25;;;7.73;80.05
31062;BME280;17724;53.546;9.974;2023-02-19T11:25:46;102214.91;;;7.99;82.69
31062;BME280;17724;53.546;9.974;2023-02-19T11:29:48;102219.59;;;8.11;79.47
31062;BME280;17724;53.546;9.974;2023-02-19T11:34:21;102232.22;;;8.12;77.80
31062;BME280;17724;53.546;9.974;2023-02-19T11:38:28;102237.69;;;7.99;75.78
31062;BME280;17724;53.546;9.974;2023-02-19T11:42:42;102242.25;;;7.79;75.83
31062;BME280;17724;53.546;9.974;2023-02-19T11:59:44;102241.50;;;7.50;74.34
31062;BME280;17724;53.546;9.974;2023-02-19T12:13:14;102232.38;;;7.91;78.02
31062;BME280;17724;53.546;9.974;2023-02-19T12:26:19;102242.81;;;8.22;76.79
31062;BME280;17724;53.546;9.974;2023-02-19T12:35:09;102254.38;;;8.11;74.85
31062;BME280;17724;53.546;9.974;2023-02-19T12:43:23;102253.69;;;7.96;73.24
31062;BME280;17724;53.546;9.974;2023-02-19T12:47:28;102259.38;;;7.94;74.36
31062;BME280;17724;53.546;9.974;2023-02-19T12:55:39;102270.59;;;8.12;69.63
31062;BME280;17724;53.546;9.974;2023-02-19T12:59:46;102249.56;;;8.26;72.10
31062;BME280;17724;53.546;9.974;2023-02-19T13:04:04;102235.66;;;8.34;73.05
31062;BME280;17724;53.546;9.974;2023-02-19T13:12:37;102226.00;;;8.52;72.70
31062;BME280;17724;53.546;9.974;2023-02-19T13:16:41;102217.34;;;8.68;73.87
31062;BME280;17724;53.546;9.974;2023-02-19T13:20:44;102235.69;;;8.61;73.41
31062;BME280;17724;53.546;9.974;2023-02-19T13:24:48;102235.72;;;8.74;72.20
31062;BME280;17724;53.546;9.974;2023-02-19T13:29:05;102223.69;;;8.69;70.43
31062;BME280;17724;53.546;9.974;2023-02-19T13:37:43;102240.34;;;8.67;70.64
31062;BME280;17724;53.546;9.974;2023-02-19T13:41:52;102236.56;;;8.55;66.82
31062;BME280;17724;53.546;9.974;2023-02-19T13:45:59;102247.94;;;8.58;65.54
31062;BME280;17724;53.546;9.974;2023-02-19T13:50:06;102246.66;;;8.41;65.41
31062;BME280;17724;53.546;9.974;2023-02-19T13:54:19;102261.22;;;8.48;69.43
31062;BME280;17724;53.546;9.974;2023-02-19T13:58:33;102253.22;;;8.47;69.05
31062;BME280;17724;53.546;9.974;2023-02-19T14:02:34;102241.19;;;8.68;71.96
31062;BME280;17724;53.546;9.974;2023-02-19T14:11:03;102253.00;;;8.68;70.83
31062;BME280;17724;53.546;9.974;2023-02-19T14:23:43;102258.28;;;8.70;70.95
31062;BME280;17724;53.546;9.974;2023-02-19T14:27:44;102251.97;;;8.62;71.15
31062;BME280;17724;53.546;9.974;2023-02-19T14:31:45;102246.69;;;8.54;71.31
31062;BME280;17724;53.546;9.974;2023-02-19T14:35:49;102245.19;;;8.45;72.57
31062;BME280;17724;53.546;9.974;2023-02-19T14:39:51;102246.91;;;8.86;75.02
31062;BME280;17724;53.546;9.974;2023-02-19T14:43:55;102238.66;;;8.79;74.00
31062;BME280;17724;53.546;9.974;2023-02-19T14:47:57;102230.56;;;9.31;78.41
31062;BME280;17724;53.546;9.974;2023-02-19T14:52:00;102222.56;;;9.09;72.40
31062;BME280;17724;53.546;9.974;2023-02-19T14:56:06;102219.25;;;8.87;71.18
31062;BME280;17724;53.546;9.974;2023-02-19T15:04:24;102208.06;;;8.96;75.23
31062;BME280;17724;53.546;9.974;2023-02-19T15:08:35;102210.75;;;9.09;76.26
31062;BME280;17724;53.546;9.974;2023-02-19T15:16:40;102217.75;;;8.85;76.38
31062;BME280;17724;53.546;9.974;2023-02-19T15:20:41;102220.72;;;8.77;75.94
31062;BME280;17724;53.546;9.974;2023-02-19T15:24:45;102212.72;;;8.82;77.01
31062;BME280;17724;53.546;9.974;2023-02-19T15:28:46;102217.34;;;8.95;76.36
31062;BME280;17724;53.546;9.974;2023-02-19T15:32:56;102211.22;;;8.93;74.92
31062;BME280;17724;53.546;9.974;2023-02-19T15:37:00;102220.72;;;8.77;74.75
31062;BME280;17724;53.546;9.974;2023-02-19T15:41:01;102228.53;;;8.86;76.84
31062;BME280;17724;53.546;9.974;2023-02-19T15:45:15;102200.03;;;8.61;73.15
31062;BME280;17724;53.546;9.974;2023-02-19T15:49:24;102230.22;;;8.68;77.34
31062;BME280;17724;53.546;9.974;2023-02-19T15:53:31;102237.81;;;8.66;75.84
31062;BME280;17724;53.546;9.974;2023-02-19T15:57:41;102236.13;;;8.71;78.21
31062;BME280;17724;53.546;9.974;2023-02-19T16:01:43;102239.09;;;8.83;78.35
31062;BME280;17724;53.546;9.974;2023-02-19T16:05:44;102242.25;;;8.67;76.34
31062;BME280;17724;53.546;9.974;2023-02-19T16:09:44;102252.78;;;8.56;74.88
31062;BME280;17724;53.546;9.974;2023-02-19T16:13:45;102240.97;;;8.49;76.42
31062;BME280;17724;53.546;9.974;2023-02-19T16:17:46;102244.97;;;8.53;77.95
31062;BME280;17724;53.546;9.974;2023-02-19T16:21:46;102252.56;;;8.45;78.82
31062;BME280;17724;53.546;9.974;2023-02-19T16:25:47;102250.44;;;8.40;80.00
31062;BME280;17724;53.546;9.974;2023-02-19T16:29:49;102252.56;;;8.38;79.41
31062;BME280;17724;53.546;9.974;2023-02-19T16:33:50;102254.25;;;8.39;80.81
31062;BME280;17724;53.546;9.974;2023-02-19T16:37:58;102261.44;;;8.53;78.89
31062;BME280;17724;53.546;9.974;2023-02-19T16:46:00;102254.38;;;8.24;78.02
31062;BME280;17724;53.546;9.974;2023-02-19T16:50:05;102257.53;;;8.21;79.89
31062;BME280;17724;53.546;9.974;2023-02-19T16:54:07;102257.97;;;8.18;79.74
31062;BME280;17724;53.546;9.974;2023-02-19T16:58:08;102256.06;;;8.25;80.96
31062;BME280;17724;53.546;9.974;2023-02-19T17:02:15;102255.25;;;8.18;79.17
31062;BME280;17724;53.546;9.974;2023-02-19T17:06:17;102254.16;;;8.12;81.40
31062;BME280;17724;53.546;9.974;2023-02-19T17:10:24;102264.09;;;8.20;81.86
31062;BME280;17724;53.546;9.974;2023-02-19T17:14:25;102255.84;;;8.07;81.25
31062;BME280;17724;53.546;9.974;2023-02-19T17:18:26;102260.47;;;8.06;80.51
31062;BME280;17724;53.546;9.974;2023-02-19T17:22:26;102252.38;;;7.85;80.31
31062;BME280;17724;53.546;9.974;2023-02-19T17:26:28;102247.75;;;7.92;84.62
31062;BME280;17724;53.546;9.974;2023-02-19T17:30:31;102246.34;;;8.03;88.35
31062;BME280;17724;53.546;9.974;2023-02-19T17:34:31;102245.69;;;8.01;88.06
31062;BME280;17724;53.546;9.974;2023-02-19T17:38:32;102229.22;;;7.87;88.47
31062;BME280;17724;53.546;9.974;2023-02-19T17:42:32;102258.97;;;8.04;87.03
31062;BME280;17724;53.546;9.974;2023-02-19T17:46:33;102250.06;;;7.88;85.57
31062;BME280;17724;53.546;9.974;2023-02-19T17:50:33;102247.94;;;7.84;88.32
31062;BME280;17724;53.546;9.974;2023-02-19T17:54:34;102267.41;;;8.09;91.17
31062;BME280;17724;53.546;9.974;2023-02-19T17:58:34;102274.81;;;8.15;89.92
31062;BME280;17724;53.546;9.974;2023-02-19T18:02:35;102279.66;;;8.13;91.69
31062;BME280;17724;53.546;9.974;2023-02-19T18:06:36;102268.44;;;8.01;91.89
31062;BME280;17724;53.546;9.974;2023-02-19T18:10:39;102282.56;;;8.05;90.78
31062;BME280;17724;53.546;9.974;2023-02-19T18:14:39;102291.84;;;8.04;90.24
31062;BME280;17724;53.546;9.974;2023-02-19T18:18:41;102285.31;;;7.98;89.90
31062;BME280;17724;53.546;9.974;2023-02-19T18:22:42;102288.06;;;7.98;90.18
31062;BME280;17724;53.546;9.974;2023-02-19T18:26:43;102301.78;;;7.63;88.51
31062;BME280;17724;53.546;9.974;2023-02-19T18:30:43;102304.22;;;7.17;88.50
31062;BME280;17724;53.546;9.974;2023-02-19T18:34:48;102290.34;;;7.53;91.38
31062;BME280;17724;53.546;9.974;2023-02-19T18:38:49;102285.31;;;7.57;90.81
31062;BME280;17724;53.546;9.974;2023-02-19T18:42:50;102261.88;;;7.13;90.12
31062;BME280;17724;53.546;9.974;2023-02-19T18:46:50;102269.53;;;6.96;90.85
31062;BME280;17724;53.546;9.974;2023-02-19T18:50:51;102257.34;;;7.27;93.74
31062;BME280;17724;53.546;9.974;2023-02-19T18:54:53;102266.75;;;7.18;92.48
31062;BME280;17724;53.546;9.974;2023-02-19T18:58:54;102261.69;;;7.49;97.24
31062;BME280;17724;53.546;9.974;2023-02-19T19:02:56;102263.19;;;7.52;94.65
31062;BME280;17724;53.546;9.974;2023-02-19T19:06:57;102265.75;;;7.60;93.73
31062;BME280;17724;53.546;9.974;2023-02-19T19:10:57;102253.28;;;7.57;92.62
31062;BME280;17724;53.546;9.974;2023-02-19T19:14:58;102246.81;;;7.65;92.84
31062;BME280;17724;53.546;9.974;2023-02-19T19:18:58;102245.13;;;7.64;91.83
31062;BME280;17724;53.546;9.974;2023-02-19T19:22:59;102249.31;;;7.60;91.24
31062;BME280;17724;53.546;9.974;2023-02-19T19:26:59;102234.31;;;7.49;90.94
31062;BME280;17724;53.546;9.974;2023-02-19T19:31:00;102241.91;;;7.54;90.69
31062;BME280;17724;53.546;9.974;2023-02-19T19:35:01;102243.53;;;7.41;90.99
31062;BME280;17724;53.546;9.974;2023-02-19T19:39:02;102233.34;;;7.29;92.56
31062;BME280;17724;53.546;9.974;2023-02-19T19:43:03;102234.47;;;7.34;92.34
31062;BME280;17724;53.546;9.974;2023-02-19T19:47:03;102230.81;;;7.27;92.43
31062;BME280;17724;53.546;9.974;2023-02-19T19:51:04;102228.88;;;7.14;92.74
31062;BME280;17724;53.546;9.974;2023-02-19T19:55:05;102232.50;;;7.28;92.46
31062;BME280;17724;53.546;9.974;2023-02-19T19:59:11;102212.88;;;6.90;93.00
31062;BME280;17724;53.546;9.974;2023-02-19T20:03:12;102245.16;;;7.01;93.16
31062;BME280;17724;53.546;9.974;2023-02-19T20:07:13;102242.84;;;6.98;93.52
31062;BME280;17724;53.546;9.974;2023-02-19T20:11:14;102244.72;;;6.98;93.27
31062;BME280;17724;53.546;9.974;2023-02-19T20:15:19;102237.78;;;6.95;95.78
31062;BME280;17724;53.546;9.974;2023-02-19T20:19:20;102226.69;;;7.03;94.80
31062;BME280;17724;53.546;9.974;2023-02-19T20:23:21;102228.00;;;6.58;93.77
31062;BME280;17724;53.546;9.974;2023-02-19T20:27:22;102216.19;;;6.79;96.21
31062;BME280;17724;53.546;9.974;2023-02-19T20:31:23;102207.22;;;6.91;95.93
31062;BME280;17724;53.546;9.974;2023-02-19T20:35:24;102216.44;;;6.84;95.48
31062;BME280;17724;53.546;9.974;2023-02-19T20:39:27;102194.56;;;6.84;94.76
31062;BME280;17724;53.546;9.974;2023-02-19T20:43:29;102207.38;;;6.83;95.70
31062;BME280;17724;53.546;9.974;2023-02-19T20:47:29;102215.38;;;6.57;95.65
31062;BME280;17724;53.546;9.974;2023-02-19T20:51:44;102210.25;;;6.47;95.89
31062;BME280;17724;53.546;9.974;2023-02-19T20:55:44;102206.13;;;6.58;96.89
31062;BME280;17724;53.546;9.974;2023-02-19T20:59:45;102213.03;;;6.54;96.99
31062;BME280;17724;53.546;9.974;2023-02-19T21:03:45;102207.97;;;6.51;96.43
31062;BME280;17724;53.546;9.974;2023-02-19T21:07:46;102199.13;;;6.49;100.00
31062;BME280;17724;53.546;9.974;2023-02-19T21:11:47;102183.69;;;6.62;98.87
31062;BME280;17724;53.546;9.974;2023-02-19T21:15:47;102190.59;;;6.58;97.59
31062;BME280;17724;53.546;9.974;2023-02-19T21:19:48;102187.75;;;6.73;97.51
31062;BME280;17724;53.546;9.974;2023-02-19T21:23:48;102197.28;;;6.56;98.39
31062;BME280;17724;53.546;9.974;2023-02-19T21:27:49;102199.72;;;6.44;98.47
31062;BME280;17724;53.546;9.974;2023-02-19T21:31:54;102214.00;;;6.68;97.83
31062;BME280;17724;53.546;9.974;2023-02-19T21:35:55;102188.50;;;6.60;96.58
31062;BME280;17724;53.546;9.974;2023-02-19T21:39:56;102193.00;;;6.47;97.20
31062;BME280;17724;53.546;9.974;2023-02-19T21:43:59;102183.75;;;6.48;97.82
31062;BME280;17724;53.546;9.974;2023-02-19T21:48:00;102182.19;;;6.60;97.90
31062;BME280;17724;53.546;9.974;2023-02-19T21:52:00;102175.94;;;6.45;97.14
31062;BME280;17724;53.546;9.974;2023-02-19T21:56:01;102174.13;;;6.30;97.35
31062;BME280;17724;53.546;9.974;2023-02-19T22:00:02;102160.25;;;6.04;98.52
31062;BME280;17724;53.546;9.974;2023-02-19T22:04:06;102149.28;;;6.25;99.66
31062;BME280;17724;53.546;9.974;2023-02-19T22:08:07;102147.88;;;6.29;98.82
31062;BME280;17724;53.546;9.974;2023-02-19T22:12:07;102142.03;;;6.11;99.42
31062;BME280;17724;53.546;9.974;2023-02-19T22:16:08;102136.56;;;6.11;100.00
31062;BME280;17724;53.546;9.974;2023-02-19T22:20:08;102130.91;;;6.12;100.00
31062;BME280;17724;53.546;9.974;2023-02-19T22:24:14;102144.81;;;6.17;100.00
31062;BME280;17724;53.546;9.974;2023-02-19T22:28:15;102129.22;;;6.11;100.00
31062;BME280;17724;53.546;9.974;2023-02-19T22:32:16;102130.97;;;5.98;100.00
31062;BME280;17724;53.546;9.974;2023-02-19T22:36:22;102138.91;;;5.92;100.00
31062;BME280;17724;53.546;9.974;2023-02-19T22:40:23;102139.56;;;5.95;100.00
31062;BME280;17724;53.546;9.974;2023-02-19T22:44:23;102145.22;;;5.78;100.00
31062;BME280;17724;53.546;9.974;2023-02-19T22:48:24;102143.72;;;5.90;100.00
31062;BME280;17724;53.546;9.974;2023-02-19T22:52:24;102149.00;;;5.92;100.00